createdAt,value
2018-03-01T00:00:36.213Z,23.87
2018-03-01T00:03:05.592Z,25.77
2018-03-01T00:05:35.085Z,27.83
2018-03-01T00:08:03.894Z,24.23
2018-03-01T00:10:33.502Z,23.83
2018-03-01T00:13:02.111Z,23.57
2018-03-01T00:15:34.100Z,23.57
2018-03-01T00:18:08.602Z,24.93
2018-03-01T00:20:38.150Z,23.13
2018-03-01T00:23:08.672Z,23.97
2018-03-01T00:25:37.951Z,24.90
2018-03-01T00:28:07.811Z,22.70
2018-03-01T00:30:37.456Z,23.07
2018-03-01T00:33:11.899Z,27.77
2018-03-01T00:35:43.492Z,26.17
2018-03-01T00:38:11.768Z,23.30
2018-03-01T00:40:40.064Z,28.50
2018-03-01T00:43:08.360Z,27.10
2018-03-01T00:45:37.633Z,23.50
2018-03-01T00:48:09.326Z,26.17
2018-03-01T00:50:44.200Z,23.23
2018-03-01T00:53:15.722Z,24.23
2018-03-01T00:56:24.664Z,21.07
2018-03-01T00:59:00.146Z,25.37
2018-03-01T01:01:33.960Z,24.00
2018-03-01T01:04:10.483Z,24.57
2018-03-01T01:06:44.161Z,23.20
2018-03-01T01:09:19.423Z,25.00
2018-03-01T01:11:56.666Z,28.40
2018-03-01T01:14:24.949Z,23.00
2018-03-01T01:16:53.234Z,24.30
2018-03-01T01:19:21.525Z,23.97
2018-03-01T01:21:49.804Z,28.23
2018-03-01T01:24:19.609Z,22.57
2018-03-01T01:27:11.421Z,25.07
2018-03-01T01:29:40.070Z,23.93
2018-03-01T01:32:08.354Z,23.83
2018-03-01T01:34:38.003Z,25.37
2018-03-01T01:37:12.888Z,27.00
2018-03-01T01:39:47.677Z,24.83
2018-03-01T01:42:17.141Z,23.17
2018-03-01T01:44:46.838Z,21.73
2018-03-01T01:47:15.816Z,25.30
2018-03-01T01:49:44.108Z,25.43
2018-03-01T01:52:12.412Z,20.33
2018-03-01T01:54:43.874Z,22.23
2018-03-01T01:57:35.246Z,22.83
2018-03-01T02:00:03.558Z,23.17
2018-03-01T02:02:32.050Z,23.73
2018-03-01T02:05:04.226Z,24.60
2018-03-01T02:07:37.878Z,24.07
2018-03-01T02:10:12.268Z,23.27
2018-03-01T02:16:03.625Z,23.73
2018-03-01T02:18:31.903Z,24.60
2018-03-01T02:21:02.080Z,22.77
2018-03-01T02:23:35.906Z,26.37
2018-03-01T02:26:04.220Z,27.20
2018-03-01T02:28:33.920Z,22.90
2018-03-01T02:31:02.794Z,23.03
2018-03-01T02:33:32.758Z,23.07
2018-03-01T02:36:01.350Z,22.97
2018-03-01T02:38:36.563Z,24.03
2018-03-01T02:41:05.190Z,25.43
2018-03-01T02:43:34.134Z,24.93
2018-03-01T02:46:04.802Z,26.13
2018-03-01T02:48:33.277Z,20.93
2018-03-01T02:51:03.399Z,24.40
2018-03-01T02:53:32.547Z,28.00
2018-03-01T02:56:01.815Z,23.47
2018-03-01T02:58:51.298Z,28.20
2018-03-01T03:01:19.622Z,23.20
2018-03-01T03:03:48.483Z,23.17
2018-03-01T03:06:23.827Z,25.00
2018-03-01T03:08:53.097Z,27.03
2018-03-01T03:11:21.488Z,25.40
2018-03-01T03:13:50.199Z,25.33
2018-03-01T03:16:18.761Z,26.73
2018-03-01T03:18:49.174Z,26.60
2018-03-01T03:21:19.770Z,36.40
2018-03-01T03:23:53.924Z,26.03
2018-03-01T03:26:29.780Z,27.23
2018-03-01T03:28:58.950Z,29.43
2018-03-01T03:31:27.301Z,30.23
2018-03-01T03:33:55.598Z,27.73
2018-03-01T03:36:23.892Z,27.83
2018-03-01T03:38:53.271Z,25.70
2018-03-01T03:41:22.285Z,27.07
2018-03-01T03:44:08.295Z,26.80
2018-03-01T03:46:42.040Z,22.53
2018-03-01T03:49:11.036Z,26.47
2018-03-01T03:51:47.134Z,25.00
2018-03-01T03:54:22.976Z,25.97
2018-03-01T03:56:57.219Z,26.60
2018-03-01T03:59:30.644Z,30.67
2018-03-01T04:02:03.052Z,23.47
2018-03-01T04:04:33.052Z,24.53
2018-03-01T04:07:03.780Z,23.87
2018-03-01T04:09:32.084Z,24.67
2018-03-01T04:12:00.391Z,24.43
2018-03-01T04:14:32.152Z,26.10
2018-03-01T04:17:02.410Z,26.23
2018-03-01T04:19:31.228Z,25.80
2018-03-01T04:22:04.245Z,22.53
2018-03-01T04:24:32.924Z,23.27
2018-03-01T04:27:06.597Z,20.33
2018-03-01T04:29:34.900Z,23.67
2018-03-01T04:32:06.994Z,23.73
2018-03-01T04:34:38.884Z,21.13
2018-03-01T04:37:14.148Z,23.73
2018-03-01T04:39:47.162Z,23.40
2018-03-01T04:42:22.998Z,25.80
2018-03-01T04:44:59.178Z,23.80
2018-03-01T04:47:27.631Z,24.13
2018-03-01T04:49:56.763Z,19.93
2018-03-01T04:52:25.805Z,23.53
2018-03-01T04:54:55.164Z,23.90
2018-03-01T04:57:23.445Z,21.87
2018-03-01T04:59:53.220Z,25.10
2018-03-01T05:02:21.557Z,20.63
2018-03-01T05:04:52.332Z,27.63
2018-03-01T05:07:20.619Z,23.00
2018-03-01T05:09:50.111Z,24.63
2018-03-01T05:12:23.631Z,26.97
2018-03-01T05:14:52.158Z,23.63
2018-03-01T05:17:25.755Z,26.40
2018-03-01T05:19:55.729Z,30.87
2018-03-01T05:22:25.039Z,28.03
2018-03-01T05:24:56.968Z,25.33
2018-03-01T05:27:26.012Z,26.57
2018-03-01T05:29:54.303Z,28.80
2018-03-01T05:32:27.720Z,31.23
2018-03-01T05:35:01.273Z,24.47
2018-03-01T05:37:37.668Z,27.47
2018-03-01T05:40:10.779Z,27.53
2018-03-01T05:42:50.364Z,27.13
2018-03-01T05:45:19.879Z,25.00
2018-03-01T05:47:54.409Z,27.77
2018-03-01T05:50:30.376Z,30.67
2018-03-01T05:53:04.971Z,30.77
2018-03-01T05:55:37.969Z,26.03
2018-03-01T05:58:14.430Z,24.27
2018-03-01T06:00:50.990Z,24.43
2018-03-01T06:03:23.724Z,27.03
2018-03-01T06:06:00.063Z,27.53
2018-03-01T06:08:35.563Z,30.83
2018-03-01T06:11:04.374Z,27.00
2018-03-01T06:13:32.652Z,25.30
2018-03-01T06:16:01.189Z,31.67
2018-03-01T06:18:31.335Z,26.47
2018-03-01T06:21:06.749Z,27.53
2018-03-01T06:23:35.035Z,24.63
2018-03-01T06:26:03.886Z,32.63
2018-03-01T06:28:35.524Z,31.83
2018-03-01T06:31:08.802Z,29.10
2018-03-01T06:33:40.742Z,38.20
2018-03-01T06:36:10.318Z,28.07
2018-03-01T06:38:41.096Z,31.00
2018-03-01T06:41:10.414Z,36.77
2018-03-01T06:43:39.377Z,31.03
2018-03-01T06:46:15.147Z,33.70
2018-03-01T06:48:47.551Z,31.13
2018-03-01T06:51:21.923Z,30.00
2018-03-01T06:53:52.139Z,33.67
2018-03-01T06:56:21.150Z,31.87
2018-03-01T06:58:50.018Z,30.17
2018-03-01T07:01:18.955Z,32.63
2018-03-01T07:03:48.200Z,34.93
2018-03-01T07:06:17.504Z,30.67
2018-03-01T07:08:46.520Z,34.87
2018-03-01T07:11:14.940Z,32.03
2018-03-01T07:13:43.199Z,31.50
2018-03-01T07:16:13.440Z,28.60
2018-03-01T07:18:44.933Z,28.13
2018-03-01T07:21:21.196Z,31.93
2018-03-01T07:23:52.789Z,29.87
2018-03-01T07:26:22.069Z,32.77
2018-03-01T07:28:53.886Z,36.97
2018-03-01T07:31:23.119Z,30.80
2018-03-01T07:33:51.720Z,28.87
2018-03-01T07:36:20.771Z,27.70
2018-03-01T07:38:49.996Z,29.90
2018-03-01T07:41:19.997Z,34.20
2018-03-01T07:43:48.342Z,31.00
2018-03-01T07:46:39.369Z,27.97
2018-03-01T07:49:12.065Z,26.50
2018-03-01T07:51:41.269Z,24.50
2018-03-01T07:54:14.073Z,27.30
2018-03-01T07:56:42.374Z,26.13
2018-03-01T07:59:10.885Z,26.50
2018-03-01T08:01:42.890Z,33.60
2018-03-01T08:04:11.349Z,27.47
2018-03-01T08:06:46.296Z,34.07
2018-03-01T08:09:21.891Z,26.37
2018-03-01T08:11:51.563Z,29.93
2018-03-01T08:14:20.091Z,32.47
2018-03-01T08:16:49.464Z,32.50
2018-03-01T08:19:18.288Z,30.00
2018-03-01T08:21:47.028Z,33.10
2018-03-01T08:24:21.047Z,35.30
2018-03-01T08:26:49.836Z,27.10
2018-03-01T08:29:19.223Z,27.40
2018-03-01T08:32:10.153Z,31.53
2018-03-01T08:34:40.397Z,27.57
2018-03-01T08:37:10.856Z,28.67
2018-03-01T08:39:40.672Z,27.50
2018-03-01T08:42:12.028Z,35.63
2018-03-01T08:44:44.775Z,33.23
2018-03-01T08:47:35.519Z,28.90
2018-03-01T08:50:07.500Z,27.17
2018-03-01T08:52:42.403Z,29.17
2018-03-01T08:55:14.950Z,28.47
2018-03-01T08:57:46.771Z,28.83
2018-03-01T09:00:19.305Z,27.50
2018-03-01T09:02:48.196Z,29.07
2018-03-01T09:05:19.619Z,30.43
2018-03-01T09:07:47.922Z,22.83
2018-03-01T09:10:16.261Z,31.70
2018-03-01T09:12:49.020Z,27.93
2018-03-01T09:15:18.086Z,24.57
2018-03-01T09:17:49.453Z,30.70
2018-03-01T09:20:17.724Z,26.00
2018-03-01T09:22:47.199Z,24.60
2018-03-01T09:25:16.163Z,27.73
2018-03-01T09:27:46.002Z,32.50
2018-03-01T09:30:14.305Z,26.93
2018-03-01T09:32:42.597Z,25.70
2018-03-01T09:35:10.892Z,26.33
2018-03-01T09:37:39.181Z,23.37
2018-03-01T09:40:10.962Z,27.53
2018-03-01T09:42:42.035Z,29.87
2018-03-01T09:45:12.175Z,32.00
2018-03-01T09:47:43.379Z,31.30
2018-03-01T09:50:11.671Z,33.40
2018-03-01T09:52:41.382Z,32.43
2018-03-01T09:55:09.658Z,33.33
2018-03-01T09:57:43.136Z,32.93
2018-03-01T10:00:11.430Z,31.30
2018-03-01T10:02:39.722Z,29.07
2018-03-01T10:05:08.076Z,30.63
2018-03-01T10:07:37.767Z,29.37
2018-03-01T10:10:07.529Z,27.57
2018-03-01T10:12:40.751Z,29.33
2018-03-01T10:15:10.036Z,27.83
2018-03-01T10:17:38.976Z,24.27
2018-03-01T10:20:07.256Z,22.90
2018-03-01T10:22:37.319Z,29.70
2018-03-01T10:25:06.268Z,27.37
2018-03-01T10:27:41.223Z,28.17
2018-03-01T10:30:11.108Z,26.97
2018-03-01T10:32:50.155Z,24.93
2018-03-01T10:35:23.815Z,29.77
2018-03-01T10:37:58.113Z,25.53
2018-03-01T10:40:28.907Z,27.27
2018-03-01T10:42:57.211Z,25.77
2018-03-01T10:45:25.525Z,26.90
2018-03-01T10:47:53.822Z,23.50
2018-03-01T10:50:24.913Z,28.10
2018-03-01T10:52:59.013Z,25.00
2018-03-01T10:55:30.403Z,25.03
2018-03-01T10:58:02.986Z,25.90
2018-03-01T11:00:42.689Z,25.57
2018-03-01T11:03:18.567Z,26.13
2018-03-01T11:05:50.452Z,23.73
2018-03-01T11:08:19.631Z,28.73
2018-03-01T11:10:51.458Z,23.03
2018-03-01T11:13:23.261Z,25.10
2018-03-01T11:15:51.553Z,30.90
2018-03-01T11:18:21.479Z,22.70
2018-03-01T11:20:51.807Z,25.93
2018-03-01T11:23:25.995Z,27.53
2018-03-01T11:26:01.428Z,26.57
2018-03-01T11:28:34.601Z,26.77
2018-03-01T11:31:11.186Z,25.10
2018-03-01T11:33:46.021Z,24.60
2018-03-01T11:36:19.424Z,24.40
2018-03-01T11:38:57.233Z,21.60
2018-03-01T11:41:30.799Z,24.10
2018-03-01T11:44:04.145Z,23.90
2018-03-01T11:46:39.416Z,23.70
2018-03-01T11:49:07.888Z,25.27
2018-03-01T11:51:36.513Z,22.70
2018-03-01T11:54:05.616Z,23.57
2018-03-01T11:56:34.097Z,23.47
2018-03-01T11:59:05.578Z,21.63
2018-03-01T12:01:38.935Z,24.17
2018-03-01T12:04:12.584Z,24.90
2018-03-01T12:06:42.363Z,20.50
2018-03-01T12:09:15.291Z,24.53
2018-03-01T12:11:43.584Z,21.70
2018-03-01T12:14:11.867Z,24.83
2018-03-01T12:16:47.569Z,24.27
2018-03-01T12:19:16.637Z,22.97
2018-03-01T12:21:49.815Z,24.30
2018-03-01T12:24:22.391Z,24.77
2018-03-01T12:26:58.071Z,26.67
2018-03-01T12:29:31.574Z,24.17
2018-03-01T12:32:04.070Z,24.03
2018-03-01T12:34:40.647Z,24.57
2018-03-01T12:37:17.128Z,22.53
2018-03-01T12:39:51.967Z,24.90
2018-03-01T12:42:23.304Z,23.80
2018-03-01T12:44:52.666Z,25.60
2018-03-01T12:47:23.576Z,23.30
2018-03-01T12:49:52.554Z,22.80
2018-03-01T12:52:22.271Z,25.33
2018-03-01T12:54:54.439Z,27.60
2018-03-01T12:57:25.120Z,25.33
2018-03-01T12:59:58.066Z,26.07
2018-03-01T13:02:33.188Z,26.73
2018-03-01T13:05:12.592Z,27.70
2018-03-01T13:07:48.667Z,23.53
2018-03-01T13:10:20.545Z,26.47
2018-03-01T13:12:55.922Z,23.40
2018-03-01T13:15:29.915Z,25.43
2018-03-01T13:18:04.680Z,26.97
2018-03-01T13:20:37.015Z,27.10
2018-03-01T13:23:05.578Z,23.63
2018-03-01T13:25:36.929Z,26.20
2018-03-01T13:28:06.750Z,26.93
2018-03-01T13:33:42.356Z,25.67
2018-03-01T13:36:37.838Z,22.50
2018-03-01T13:39:14.627Z,24.83
2018-03-01T13:41:46.122Z,26.07
2018-03-01T13:44:15.144Z,25.00
2018-03-01T13:46:47.930Z,25.70
2018-03-01T13:49:17.671Z,26.43
2018-03-01T13:51:47.242Z,25.87
2018-03-01T13:54:16.180Z,28.90
2018-03-01T13:56:48.091Z,27.07
2018-03-01T13:59:20.837Z,29.20
2018-03-01T14:01:50.995Z,26.13
2018-03-01T14:04:42.067Z,21.90
2018-03-01T14:07:14.785Z,26.73
2018-03-01T14:09:45.969Z,26.43
2018-03-01T14:12:15.156Z,30.47
2018-03-01T14:14:52.194Z,29.80
2018-03-01T14:17:21.531Z,25.77
2018-03-01T14:19:57.787Z,27.73
2018-03-01T14:25:31.570Z,30.13
2018-03-01T14:28:06.283Z,33.90
2018-03-01T14:30:34.795Z,29.13
2018-03-01T14:33:03.092Z,30.47
2018-03-01T14:35:34.711Z,30.00
2018-03-01T14:38:05.522Z,27.40
2018-03-01T14:40:37.735Z,26.50
2018-03-01T14:43:09.208Z,29.23
2018-03-01T14:45:38.572Z,29.93
2018-03-01T14:48:08.662Z,27.67
2018-03-01T14:50:39.771Z,27.17
2018-03-01T14:53:08.091Z,29.23
2018-03-01T14:55:39.012Z,26.50
2018-03-01T14:58:14.303Z,29.47
2018-03-01T15:00:44.607Z,25.50
2018-03-01T15:03:13.122Z,29.27
2018-03-01T15:05:45.246Z,22.77
2018-03-01T15:08:15.440Z,27.83
2018-03-01T15:10:44.542Z,28.37
2018-03-01T15:13:13.439Z,23.57
2018-03-01T15:15:47.375Z,33.80
2018-03-01T15:18:18.715Z,29.80
2018-03-01T15:20:48.014Z,26.80
2018-03-01T15:23:17.059Z,26.33
2018-03-01T15:25:48.044Z,23.40
2018-03-01T15:28:16.735Z,25.87
2018-03-01T15:30:46.552Z,26.33
2018-03-01T15:33:17.191Z,28.53
2018-03-01T15:35:47.344Z,29.53
2018-03-01T15:38:19.963Z,30.17
2018-03-01T15:40:48.261Z,23.03
2018-03-01T15:43:16.546Z,26.10
2018-03-01T15:45:46.943Z,29.23
2018-03-01T15:48:21.272Z,27.17
2018-03-01T15:51:23.600Z,26.87
2018-03-01T15:54:00.137Z,26.73
2018-03-01T15:56:28.424Z,25.03
2018-03-01T15:58:57.186Z,27.03
2018-03-01T16:01:27.125Z,21.47
2018-03-01T16:03:56.186Z,23.63
2018-03-01T16:06:24.985Z,24.37
2018-03-01T16:08:54.685Z,30.73
2018-03-01T16:11:32.489Z,23.73
2018-03-01T16:14:10.125Z,21.10
2018-03-01T16:16:39.878Z,23.60
2018-03-01T16:19:17.151Z,23.80
2018-03-01T16:22:08.226Z,24.80
2018-03-01T16:24:40.592Z,22.40
2018-03-01T16:27:09.810Z,27.43
2018-03-01T16:29:43.250Z,19.87
2018-03-01T16:32:15.036Z,22.23
2018-03-01T16:34:48.544Z,20.73
2018-03-01T16:37:22.040Z,21.83
2018-03-01T16:39:57.042Z,22.77
2018-03-01T16:42:28.100Z,23.17
2018-03-01T16:44:56.390Z,22.67
2018-03-01T16:47:26.066Z,26.93
2018-03-01T16:49:55.989Z,26.17
2018-03-01T16:52:25.025Z,23.03
2018-03-01T16:54:55.421Z,22.30
2018-03-01T16:57:30.751Z,23.70
2018-03-01T17:00:05.094Z,22.07
2018-03-01T17:02:37.144Z,25.90
2018-03-01T17:05:06.111Z,20.80
2018-03-01T17:07:35.024Z,21.60
2018-03-01T17:10:03.329Z,23.13
2018-03-01T17:12:32.442Z,20.83
2018-03-01T17:15:00.731Z,22.27
2018-03-01T17:17:32.640Z,26.03
2018-03-01T17:20:05.808Z,23.27
2018-03-01T17:22:43.555Z,24.13
2018-03-01T17:25:14.665Z,21.37
2018-03-01T17:27:46.248Z,23.40
2018-03-01T17:30:17.441Z,22.80
2018-03-01T17:32:45.750Z,22.60
2018-03-01T17:35:15.204Z,20.97
2018-03-01T17:37:45.186Z,23.47
2018-03-01T17:40:15.961Z,21.97
2018-03-01T17:42:53.291Z,25.83
2018-03-01T17:45:26.282Z,22.70
2018-03-01T17:48:00.252Z,21.67
2018-03-01T17:50:36.401Z,23.67
2018-03-01T17:53:45.910Z,23.60
2018-03-01T17:56:20.294Z,18.97
2018-03-01T17:58:56.608Z,23.00
2018-03-01T18:01:31.163Z,22.53
2018-03-01T18:04:02.934Z,26.93
2018-03-01T18:06:31.235Z,21.13
2018-03-01T18:09:04.364Z,21.10
2018-03-01T18:11:35.059Z,23.63
2018-03-01T18:14:04.573Z,18.30
2018-03-01T18:16:33.005Z,20.97
2018-03-01T18:19:01.300Z,22.17
2018-03-01T18:21:33.398Z,21.33
2018-03-01T18:24:23.755Z,18.97
2018-03-01T18:26:52.359Z,19.83
2018-03-01T18:29:20.977Z,20.07
2018-03-01T18:31:52.411Z,17.17
2018-03-01T18:34:24.619Z,19.20
2018-03-01T18:36:57.481Z,18.67
2018-03-01T18:39:30.439Z,20.93
2018-03-01T18:41:59.699Z,16.63
2018-03-01T18:44:27.981Z,19.67
2018-03-01T18:46:56.580Z,17.67
2018-03-01T18:49:25.432Z,18.83
2018-03-01T18:51:56.374Z,17.17
2018-03-01T18:54:24.676Z,16.90
2018-03-01T18:56:54.085Z,17.67
2018-03-01T18:59:24.978Z,21.13
2018-03-01T19:01:57.277Z,17.23
2018-03-01T19:04:26.269Z,18.13
2018-03-01T19:06:54.848Z,17.77
2018-03-01T19:09:23.405Z,21.37
2018-03-01T19:11:53.323Z,19.87
2018-03-01T19:14:23.428Z,18.87
2018-03-01T19:16:52.071Z,19.67
2018-03-01T19:19:22.794Z,17.80
2018-03-01T19:21:52.774Z,20.90
2018-03-01T19:24:21.325Z,18.40
2018-03-01T19:26:50.802Z,19.67
2018-03-01T19:29:19.803Z,16.70
2018-03-01T19:31:48.099Z,16.47
2018-03-01T19:34:22.023Z,20.23
2018-03-01T19:36:55.991Z,21.10
2018-03-01T19:39:42.498Z,18.17
2018-03-01T19:42:10.784Z,17.37
2018-03-01T19:44:41.267Z,16.47
2018-03-01T19:47:14.180Z,18.03
2018-03-01T19:49:49.707Z,20.60
2018-03-01T19:52:27.168Z,17.93
2018-03-01T19:54:56.429Z,17.90
2018-03-01T19:57:24.724Z,15.23
2018-03-01T19:59:53.953Z,18.37
2018-03-01T20:02:22.278Z,20.70
2018-03-01T20:04:50.642Z,22.80
2018-03-01T20:07:22.212Z,18.57
2018-03-01T20:09:58.084Z,19.97
2018-03-01T20:12:32.212Z,18.37
2018-03-01T20:15:07.140Z,19.40
2018-03-01T20:17:40.977Z,17.70
2018-03-01T20:20:13.931Z,15.70
2018-03-01T20:22:43.527Z,19.43
2018-03-01T20:25:14.263Z,16.50
2018-03-01T20:27:47.165Z,17.90
2018-03-01T20:30:15.463Z,16.00
2018-03-01T20:32:55.831Z,17.33
2018-03-01T20:35:24.461Z,15.20
2018-03-01T20:37:53.626Z,18.63
2018-03-01T20:40:24.827Z,21.93
2018-03-01T20:42:58.538Z,15.63
2018-03-01T20:45:30.639Z,18.60
2018-03-01T20:47:59.805Z,17.83
2018-03-01T20:50:32.272Z,17.73
2018-03-01T20:53:00.641Z,20.50
2018-03-01T20:55:30.789Z,19.67
2018-03-01T20:58:10.987Z,20.10
2018-03-01T21:00:42.436Z,18.90
2018-03-01T21:03:12.919Z,17.77
2018-03-01T21:05:42.551Z,20.97
2018-03-01T21:08:20.488Z,18.23
2018-03-01T21:10:57.097Z,19.17
2018-03-01T21:13:27.745Z,18.67
2018-03-01T21:16:04.147Z,22.37
2018-03-01T21:18:33.048Z,21.63
2018-03-01T21:21:03.966Z,16.60
2018-03-01T21:23:35.416Z,19.93
2018-03-01T21:26:05.275Z,19.43
2018-03-01T21:28:35.292Z,20.73
2018-03-01T21:31:04.628Z,23.10
2018-03-01T21:33:34.394Z,21.13
2018-03-01T21:36:02.683Z,19.00
2018-03-01T21:38:34.057Z,22.43
2018-03-01T21:41:02.359Z,21.07
2018-03-01T21:43:30.648Z,18.97
2018-03-01T21:45:59.599Z,19.27
2018-03-01T21:48:32.669Z,20.07
2018-03-01T21:51:01.839Z,21.73
2018-03-01T21:53:30.149Z,22.90
2018-03-01T21:55:58.433Z,22.63
2018-03-01T21:58:26.862Z,20.80
2018-03-01T22:00:55.395Z,20.23
2018-03-01T22:03:25.056Z,28.30
2018-03-01T22:05:55.623Z,19.43
2018-03-01T22:08:23.925Z,20.13
2018-03-01T22:10:52.968Z,20.10
2018-03-01T22:13:21.430Z,20.30
2018-03-01T22:15:53.740Z,21.03
2018-03-01T22:18:27.538Z,19.83
2018-03-01T22:21:01.255Z,19.17
2018-03-01T22:23:30.504Z,21.43
2018-03-01T22:26:01.507Z,15.67
2018-03-01T22:28:29.995Z,20.60
2018-03-01T22:31:00.533Z,18.97
2018-03-01T22:33:29.201Z,19.37
2018-03-01T22:36:07.409Z,19.07
2018-03-01T22:38:36.384Z,18.50
2018-03-01T22:44:27.539Z,17.93
2018-03-01T22:46:56.846Z,20.10
2018-03-01T22:49:25.219Z,18.23
2018-03-01T22:51:56.863Z,17.83
2018-03-01T22:54:25.285Z,18.23
2018-03-01T22:57:18.972Z,16.20
2018-03-01T22:59:49.039Z,19.90
2018-03-01T23:02:27.194Z,16.30
2018-03-01T23:05:00.117Z,17.07
2018-03-01T23:07:32.680Z,17.87
2018-03-01T23:10:07.263Z,20.00
2018-03-01T23:12:44.302Z,17.57
2018-03-01T23:15:18.832Z,18.13
2018-03-01T23:17:48.096Z,17.37
2018-03-01T23:20:17.224Z,23.33
2018-03-01T23:22:46.888Z,17.03
2018-03-01T23:25:16.605Z,16.73
2018-03-01T23:27:48.784Z,17.53
2018-03-01T23:30:17.267Z,17.43
2018-03-01T23:32:53.618Z,15.63
2018-03-01T23:35:28.199Z,14.83
2018-03-01T23:37:58.402Z,19.73
2018-03-01T23:40:31.881Z,21.80
2018-03-01T23:43:00.907Z,14.93
2018-03-01T23:45:30.882Z,16.43
2018-03-01T23:47:59.360Z,16.10
2018-03-01T23:50:27.653Z,15.60
2018-03-01T23:52:56.456Z,16.57
2018-03-01T23:55:25.143Z,16.57
2018-03-01T23:57:53.464Z,19.97
